Startpagina
METAR-TAF:

METAR-TAF

Vliegvelden :

Bastia, Frankrijk

breedte: 42-33N, lengte: 009-29E, hoogte: 8 m

Actueel weer

Dit bericht is 25 minuten geleden gemaakt, om 04:30 UTC
Wind 3 kt uit het zuidzuidwesten
Temperatuur 16°C
Vochtigheid 82%
Druk 1015 hPa
Zicht 10 km of meer
geen wolken onder 1500 m en geen cumulonimbus

METAR: LFKB 020430Z AUTO 21003KT CAVOK 16/13 Q1015 NOSIG

Tijdstip: 06:55 (04:55 UTC)

Verwachting

Dit bericht is 2 uur en het 55 minuten geleden gemaakt, om 02:00 UTC
Verwachting geldig van 02 om 03 UTC tot 03 om 03 UTC
Wind 4 kt uit het westzuidwesten
Zicht 10 km of meer
Wijzigt naar
van 02 om 09 UTC tot 02 om 11 UTC
Wind 6 kt uit het noordoosten
Wijzigt naar
van 02 om 18 UTC tot 02 om 21 UTC
Wind 4 kt uit het westzuidwesten

TAF: LFKB 020200Z 0203/0303 24004KT 9999 NSC TX24/0211Z TN15/0203Z BECMG 0209/0211 04006KT BECMG 0218/0221 24004KT

Waarnemingen en weersverwachtingen van meer dan 4000 vliegvelden (METAR en TAF).

De beschikbare stations zijn de gele en rode punten op de kaart.

Ga met uw muis naar het station om de naam te zien.

Klik dan om waarnemingen en weersverwachtingen te zien.

kaart wijzigen: klik op de groene knoppen met een zwart kruis om in te zoomen, op de groene knop met een streepje om uit te zoomen of op de groene pijlen voor aangrenzende kaarten.


METAR-TAF: